Time;durP1;ratioP1;P1;durP2;ratioP2;P2;SDS_P1;SDS_P2;PMS_P1;PMS_P2;Temp;Humidity;BMP_temperature;BMP_pressure;BME280_temperature;BME280_humidity;BME280_pressure;Samples;Min_cycle;Max_cycle;Signal;HPM_P1;HPM_P2
2023/11/19 00:00:17;;;;;;;29.95;20.63;;;11.60;63.20;;;;;;5033370;28;20029;-78
2023/11/19 00:02:43;;;;;;;24.73;18.95;;;11.50;63.20;;;;;;5032771;28;20199;-77
2023/11/19 00:05:11;;;;;;;29.30;20.30;;;11.50;63.40;;;;;;5032582;28;20397;-78
2023/11/19 00:07:41;;;;;;;26.90;18.02;;;11.50;63.50;;;;;;5032715;28;20033;-77
2023/11/19 00:10:10;;;;;;;26.20;16.45;;;11.40;63.70;;;;;;5032545;28;20393;-75
2023/11/19 00:12:44;;;;;;;22.40;15.10;;;11.40;64.20;;;;;;5032446;28;20156;-78
2023/11/19 00:15:13;;;;;;;23.38;14.02;;;11.40;63.90;;;;;;5032488;28;20033;-76
2023/11/19 00:17:40;;;;;;;17.95;12.10;;;11.40;64.00;;;;;;5032421;28;20033;-76
2023/11/19 00:20:07;;;;;;;18.90;12.20;;;11.40;64.00;;;;;;5031811;28;20068;-75
2023/11/19 00:22:33;;;;;;;17.05;11.38;;;11.40;64.10;;;;;;5032125;28;20072;-76
2023/11/19 00:24:59;;;;;;;18.08;10.93;;;11.30;63.80;;;;;;5032250;28;20037;-75
2023/11/19 00:27:25;;;;;;;15.77;10.80;;;11.30;63.90;;;;;;5032519;28;20060;-77
2023/11/19 00:29:51;;;;;;;18.73;12.35;;;11.40;64.30;;;;;;5031942;28;20056;-77
2023/11/19 00:32:17;;;;;;;16.95;11.52;;;11.30;64.20;;;;;;5031951;28;20026;-77
2023/11/19 00:34:47;;;;;;;16.40;11.52;;;11.30;64.20;;;;;;5031654;28;20030;-75
2023/11/19 00:37:13;;;;;;;16.63;11.38;;;11.30;64.20;;;;;;5033901;28;20113;-78
2023/11/19 00:39:39;;;;;;;19.88;11.85;;;11.30;64.20;;;;;;5036442;28;20128;-77
2023/11/19 00:42:05;;;;;;;16.52;11.70;;;11.30;64.50;;;;;;5018345;28;20117;-75
2023/11/19 00:44:31;;;;;;;16.38;11.75;;;11.30;64.60;;;;;;5036046;28;20415;-75
2023/11/19 00:46:57;;;;;;;18.48;10.95;;;11.30;64.30;;;;;;5035763;28;20148;-76
2023/11/19 00:49:22;;;;;;;18.27;11.07;;;11.20;64.30;;;;;;5035249;28;20128;-76
2023/11/19 00:51:49;;;;;;;17.83;11.25;;;11.30;64.40;;;;;;5035899;28;20068;-76
2023/11/19 00:54:15;;;;;;;18.77;11.07;;;11.30;64.50;;;;;;5035662;28;20037;-77
2023/11/19 00:56:40;;;;;;;17.00;10.93;;;11.20;64.20;;;;;;5035848;28;20429;-76
2023/11/19 00:59:06;;;;;;;19.52;12.23;;;11.10;64.40;;;;;;5035796;28;20065;-77
2023/11/19 01:01:32;;;;;;;19.95;11.80;;;11.10;64.70;;;;;;5036554;28;20041;-77
2023/11/19 01:03:57;;;;;;;18.27;10.93;;;11.10;64.90;;;;;;5036280;28;20033;-77
2023/11/19 01:06:32;;;;;;;21.25;11.82;;;11.10;65.10;;;;;;5035958;28;20037;-76
2023/11/19 01:08:58;;;;;;;19.95;10.55;;;11.10;65.10;;;;;;5035654;28;20033;-76
2023/11/19 01:11:24;;;;;;;16.58;10.38;;;11.00;64.90;;;;;;5035516;28;20167;-75
2023/11/19 01:13:51;;;;;;;16.20;9.98;;;11.00;65.00;;;;;;5035322;28;20044;-76
2023/11/19 01:16:18;;;;;;;14.77;9.60;;;11.00;65.20;;;;;;5035280;28;20085;-75
2023/11/19 01:18:44;;;;;;;17.73;9.90;;;11.00;65.30;;;;;;5035707;28;20467;-75
2023/11/19 01:21:11;;;;;;;15.40;9.82;;;11.00;65.10;;;;;;5035646;28;20069;-74
2023/11/19 01:23:37;;;;;;;15.55;9.45;;;11.00;65.30;;;;;;5034941;28;20120;-75
2023/11/19 01:26:05;;;;;;;17.58;9.80;;;11.00;65.20;;;;;;5035324;28;20162;-75
2023/11/19 01:28:31;;;;;;;14.13;9.13;;;11.00;65.30;;;;;;5035336;28;20140;-77
2023/11/19 01:30:56;;;;;;;16.20;8.85;;;11.00;65.10;;;;;;5034990;28;20037;-76
2023/11/19 01:33:22;;;;;;;14.07;8.40;;;11.00;65.30;;;;;;5017243;28;20397;-76
2023/11/19 01:35:48;;;;;;;13.35;8.70;;;10.90;65.10;;;;;;5035015;28;20036;-75
2023/11/19 01:38:14;;;;;;;16.05;7.95;;;10.90;65.40;;;;;;5020594;28;20034;-75
2023/11/19 01:40:40;;;;;;;14.82;8.15;;;10.90;65.20;;;;;;5015245;28;20484;-77
2023/11/19 01:43:05;;;;;;;13.20;7.28;;;10.80;66.00;;;;;;5015165;28;20117;-75
2023/11/19 01:45:32;;;;;;;14.95;8.23;;;10.80;65.40;;;;;;5015192;28;20212;-77
2023/11/19 01:48:00;;;;;;;11.77;7.82;;;10.90;65.50;;;;;;5014465;28;20506;-77
2023/11/19 01:50:27;;;;;;;11.30;7.75;;;10.90;65.40;;;;;;5015041;28;20042;-76
2023/11/19 01:52:54;;;;;;;13.45;7.85;;;10.80;65.40;;;;;;5014709;28;20060;-74
2023/11/19 01:55:24;;;;;;;11.15;7.13;;;10.80;65.40;;;;;;5014868;28;20034;-76
2023/11/19 01:57:52;;;;;;;11.95;7.13;;;10.70;65.70;;;;;;5014865;28;20033;-76
2023/11/19 02:00:19;;;;;;;10.57;7.45;;;10.70;65.70;;;;;;5015113;28;20030;-76
2023/11/19 02:02:47;;;;;;;11.35;7.13;;;10.70;65.60;;;;;;5014750;28;20080;-76
2023/11/19 02:05:14;;;;;;;10.73;7.18;;;10.70;65.70;;;;;;5014529;28;20375;-75
2023/11/19 02:07:40;;;;;;;15.70;7.28;;;10.60;65.70;;;;;;5014949;28;20030;-76
2023/11/19 02:10:12;;;;;;;13.13;7.40;;;10.70;65.90;;;;;;5014954;28;20036;-76
2023/11/19 02:12:42;;;;;;;10.70;6.78;;;10.70;66.00;;;;;;5015535;28;20026;-76
2023/11/19 02:15:09;;;;;;;10.65;7.15;;;10.70;65.90;;;;;;5015226;28;20512;-75
2023/11/19 02:17:34;;;;;;;11.60;6.85;;;10.70;66.00;;;;;;5014531;28;20022;-76
2023/11/19 02:20:00;;;;;;;12.15;6.80;;;10.70;66.00;;;;;;5014471;28;20037;-75
2023/11/19 02:22:26;;;;;;;13.43;8.23;;;10.70;65.80;;;;;;5014201;28;20375;-75
2023/11/19 02:24:59;;;;;;;13.80;7.85;;;10.70;66.10;;;;;;5014759;28;20042;-76
2023/11/19 02:27:41;;;;;;;13.27;7.88;;;10.70;66.90;;;;;;5014513;28;20054;-74
2023/11/19 02:30:08;;;;;;;11.90;7.53;;;10.60;66.20;;;;;;5030791;28;20092;-75
2023/11/19 02:32:35;;;;;;;12.18;7.45;;;10.60;66.70;;;;;;5034046;28;20049;-75
2023/11/19 02:35:01;;;;;;;13.13;8.18;;;10.60;66.60;;;;;;5034050;28;20503;-76
2023/11/19 02:37:28;;;;;;;12.98;8.57;;;10.50;66.70;;;;;;5033844;28;20047;-75
2023/11/19 02:39:54;;;;;;;13.02;8.50;;;10.50;66.90;;;;;;5033990;28;20053;-75
2023/11/19 02:42:19;;;;;;;14.07;8.70;;;10.50;67.30;;;;;;5033933;28;20076;-76
2023/11/19 02:44:46;;;;;;;12.82;8.45;;;10.50;67.50;;;;;;5034582;28;20037;-77
2023/11/19 02:47:12;;;;;;;14.60;8.07;;;10.40;67.30;;;;;;5034041;28;20033;-75
2023/11/19 02:49:37;;;;;;;15.35;7.90;;;10.40;67.40;;;;;;5033743;28;20362;-76
2023/11/19 02:52:05;;;;;;;14.88;8.45;;;10.40;67.60;;;;;;5033603;28;20087;-75
2023/11/19 02:54:34;;;;;;;13.88;7.60;;;10.40;67.50;;;;;;5033447;28;20045;-75
2023/11/19 02:57:03;;;;;;;10.93;7.15;;;10.40;67.50;;;;;;5033482;28;20026;-75
2023/11/19 02:59:38;;;;;;;12.95;7.78;;;10.40;67.60;;;;;;5033373;28;20388;-75
2023/11/19 03:02:11;;;;;;;11.63;6.90;;;10.30;67.50;;;;;;5033130;28;20033;-76
2023/11/19 03:04:39;;;;;;;11.98;7.20;;;10.30;67.80;;;;;;5048783;28;20080;-75
2023/11/19 03:07:07;;;;;;;12.65;7.75;;;10.20;68.00;;;;;;5033300;28;20065;-75
2023/11/19 03:09:34;;;;;;;13.48;7.63;;;10.20;68.00;;;;;;5033220;28;20120;-78
2023/11/19 03:12:00;;;;;;;12.23;7.35;;;10.20;68.10;;;;;;5033367;28;20259;-76
2023/11/19 03:14:25;;;;;;;13.10;7.43;;;10.20;68.20;;;;;;5015622;28;20543;-76
2023/11/19 03:16:52;;;;;;;15.80;7.65;;;10.20;68.20;;;;;;5015556;28;20053;-75
2023/11/19 03:19:17;;;;;;;11.27;6.80;;;10.20;68.10;;;;;;5032812;28;20029;-76
2023/11/19 03:21:44;;;;;;;12.68;7.20;;;10.20;68.30;;;;;;5033061;28;20034;-76
2023/11/19 03:24:10;;;;;;;12.38;7.20;;;10.20;68.30;;;;;;5033193;28;20030;-74
2023/11/19 03:26:37;;;;;;;11.32;6.80;;;10.30;68.40;;;;;;5033197;28;20026;-75
2023/11/19 03:29:03;;;;;;;10.75;6.63;;;10.30;68.30;;;;;;5032607;28;20481;-75
2023/11/19 03:31:28;;;;;;;12.57;7.10;;;10.30;68.10;;;;;;5032755;28;20124;-75
2023/11/19 03:33:54;;;;;;;10.82;5.88;;;10.30;67.90;;;;;;5032604;28;20042;-76
2023/11/19 03:36:20;;;;;;;11.05;6.50;;;10.40;68.20;;;;;;5032749;28;20424;-75
2023/11/19 03:38:46;;;;;;;11.75;6.80;;;10.30;68.10;;;;;;5032566;28;20045;-75
2023/11/19 03:41:17;;;;;;;10.48;6.03;;;10.30;68.20;;;;;;5015120;28;20492;-76
2023/11/19 03:43:42;;;;;;;12.35;6.82;;;10.30;68.20;;;;;;5033023;28;20038;-77
2023/11/19 03:46:18;;;;;;;11.95;6.18;;;10.30;68.10;;;;;;5032843;28;20453;-76
2023/11/19 03:48:44;;;;;;;10.82;6.60;;;10.30;68.10;;;;;;5032534;28;20120;-74
2023/11/19 03:51:09;;;;;;;11.38;6.28;;;10.30;68.10;;;;;;5032856;28;20060;-77
2023/11/19 03:53:35;;;;;;;11.48;6.63;;;10.30;68.30;;;;;;5014691;28;20065;-76
2023/11/19 03:56:01;;;;;;;10.38;6.10;;;10.30;68.30;;;;;;5032537;28;20037;-76
2023/11/19 03:58:27;;;;;;;10.48;6.40;;;10.30;68.30;;;;;;5034785;28;20044;-75
2023/11/19 04:00:52;;;;;;;10.25;6.38;;;10.20;68.10;;;;;;5035791;28;20033;-76
2023/11/19 04:03:19;;;;;;;11.05;6.20;;;10.20;68.30;;;;;;5032802;28;20175;-74
2023/11/19 04:05:45;;;;;;;11.60;6.78;;;10.20;68.40;;;;;;5032754;28;20037;-76
2023/11/19 04:08:10;;;;;;;11.20;6.88;;;10.20;68.50;;;;;;5032685;28;20473;-77
2023/11/19 04:10:36;;;;;;;11.07;5.90;;;10.10;68.20;;;;;;5032578;28;20037;-75
2023/11/19 04:13:02;;;;;;;11.05;6.47;;;10.10;68.40;;;;;;5032025;28;20069;-75
2023/11/19 04:15:27;;;;;;;11.23;6.22;;;10.20;68.60;;;;;;5032597;28;20033;-75
2023/11/19 04:17:53;;;;;;;11.75;6.15;;;10.20;68.60;;;;;;5032255;28;20076;-76
2023/11/19 04:20:19;;;;;;;10.27;6.22;;;10.20;68.50;;;;;;5032448;28;20118;-76
2023/11/19 04:22:45;;;;;;;11.68;5.95;;;10.20;68.40;;;;;;5032325;28;20373;-74
2023/11/19 04:25:11;;;;;;;10.38;6.40;;;10.30;68.30;;;;;;5032230;28;20389;-75
2023/11/19 04:27:37;;;;;;;10.55;6.07;;;10.20;68.90;;;;;;5014384;28;20481;-75
2023/11/19 04:30:03;;;;;;;14.38;6.15;;;10.20;68.30;;;;;;5032421;28;20045;-75
2023/11/19 04:32:29;;;;;;;9.48;5.63;;;10.10;68.20;;;;;;5033313;28;20250;-76
2023/11/19 04:34:55;;;;;;;10.27;6.28;;;10.10;68.20;;;;;;5032607;28;20079;-75
2023/11/19 04:37:20;;;;;;;10.15;5.57;;;10.10;68.10;;;;;;5032413;28;20112;-75
2023/11/19 04:39:46;;;;;;;8.98;5.53;;;10.00;68.00;;;;;;5032130;28;20218;-75
2023/11/19 04:42:12;;;;;;;10.82;5.55;;;10.00;68.10;;;;;;5032144;28;20033;-76
2023/11/19 04:44:38;;;;;;;8.93;5.85;;;10.00;68.40;;;;;;5031891;28;20038;-75
2023/11/19 04:47:04;;;;;;;12.00;5.82;;;9.90;69.20;;;;;;5031954;28;20052;-75
2023/11/19 04:49:30;;;;;;;11.60;5.40;;;9.90;69.40;;;;;;5031961;28;20042;-76
2023/11/19 04:51:56;;;;;;;9.90;5.68;;;9.90;69.10;;;;;;5032300;28;20029;-76
2023/11/19 04:54:22;;;;;;;8.70;5.50;;;9.90;69.30;;;;;;5031996;28;20040;-76
2023/11/19 04:56:48;;;;;;;10.48;5.65;;;10.00;68.50;;;;;;5032288;28;20030;-77
2023/11/19 04:59:14;;;;;;;9.98;5.57;;;10.00;68.10;;;;;;5032188;28;20060;-76
2023/11/19 05:01:40;;;;;;;13.70;6.47;;;10.00;68.00;;;;;;5032059;28;20512;-76
2023/11/19 05:04:07;;;;;;;11.15;6.00;;;10.00;68.00;;;;;;5033068;28;20034;-74
2023/11/19 05:06:34;;;;;;;8.77;5.20;;;10.00;67.90;;;;;;5032940;28;20372;-76
2023/11/19 05:09:04;;;;;;;9.70;5.97;;;10.00;67.80;;;;;;5031818;28;20037;-76
2023/11/19 05:11:31;;;;;;;14.13;6.45;;;10.10;68.10;;;;;;5031976;28;20418;-76
2023/11/19 05:13:57;;;;;;;8.68;5.30;;;10.10;67.90;;;;;;5031834;28;20060;-76
2023/11/19 05:16:22;;;;;;;7.95;4.90;;;10.20;67.80;;;;;;5031773;28;20461;-76
2023/11/19 05:18:48;;;;;;;8.80;5.13;;;10.20;67.60;;;;;;5031796;28;20034;-76
2023/11/19 05:21:14;;;;;;;8.15;5.00;;;10.20;67.20;;;;;;5031899;28;20081;-76
2023/11/19 05:23:41;;;;;;;10.05;5.35;;;10.10;67.90;;;;;;5033144;28;20045;-76
2023/11/19 05:26:07;;;;;;;8.43;5.00;;;10.10;67.40;;;;;;5035565;28;20037;-75
2023/11/19 05:28:33;;;;;;;9.68;4.93;;;10.10;67.70;;;;;;5019116;28;20061;-75
2023/11/19 05:30:58;;;;;;;11.35;5.28;;;10.10;67.70;;;;;;5039798;28;20111;-75
2023/11/19 05:33:24;;;;;;;8.18;5.00;;;10.10;67.60;;;;;;5038528;28;20374;-75
2023/11/19 05:35:50;;;;;;;9.18;4.78;;;10.10;67.30;;;;;;5036230;28;20048;-76
2023/11/19 05:38:15;;;;;;;9.27;4.78;;;10.10;67.50;;;;;;5035804;28;20040;-76
2023/11/19 05:40:42;;;;;;;9.25;5.65;;;10.10;67.30;;;;;;5035655;28;20037;-76
2023/11/19 05:43:07;;;;;;;11.27;5.28;;;10.00;67.30;;;;;;5035327;28;20077;-77
2023/11/19 05:45:33;;;;;;;9.05;5.75;;;10.00;67.60;;;;;;5035514;28;20061;-75
2023/11/19 05:47:59;;;;;;;7.97;4.93;;;10.10;67.50;;;;;;5035349;28;20049;-75
2023/11/19 05:50:24;;;;;;;9.30;5.47;;;10.10;67.60;;;;;;5035004;28;20143;-76
2023/11/19 05:52:52;;;;;;;14.20;5.55;;;10.10;67.50;;;;;;5035145;28;20033;-75
2023/11/19 05:55:19;;;;;;;10.10;5.70;;;10.10;67.30;;;;;;5035107;28;20037;-76
2023/11/19 05:57:45;;;;;;;10.52;6.55;;;10.10;67.50;;;;;;5034888;28;20025;-76
2023/11/19 06:00:12;;;;;;;8.88;5.70;;;10.10;67.60;;;;;;5035178;28;20029;-76
2023/11/19 06:02:38;;;;;;;10.27;5.93;;;10.00;67.70;;;;;;5034899;28;20037;-76
2023/11/19 06:05:05;;;;;;;11.48;7.05;;;10.10;67.90;;;;;;5034959;28;20061;-76
2023/11/19 06:07:35;;;;;;;12.50;6.75;;;10.00;67.70;;;;;;5034641;28;20025;-75
2023/11/19 06:10:01;;;;;;;14.38;7.18;;;10.00;68.10;;;;;;5034459;28;20052;-76
2023/11/19 06:12:27;;;;;;;14.48;8.43;;;10.00;68.20;;;;;;5034809;28;20034;-76
2023/11/19 06:14:53;;;;;;;18.30;10.38;;;10.00;68.10;;;;;;5034579;28;20030;-77
2023/11/19 06:17:19;;;;;;;16.33;10.25;;;9.90;69.20;;;;;;5034783;28;20404;-76
2023/11/19 06:19:44;;;;;;;18.75;11.35;;;10.00;68.60;;;;;;5034892;28;20091;-77
2023/11/19 06:22:10;;;;;;;23.67;11.70;;;10.00;68.50;;;;;;5035121;28;20030;-76
2023/11/19 06:24:36;;;;;;;16.83;11.05;;;10.00;68.30;;;;;;5034947;28;20061;-76
2023/11/19 06:27:02;;;;;;;17.35;11.68;;;10.00;68.10;;;;;;5033301;28;20503;-76
2023/11/19 06:29:28;;;;;;;19.80;11.02;;;10.00;68.30;;;;;;5034082;28;20044;-76
2023/11/19 06:31:54;;;;;;;18.10;9.68;;;10.10;68.10;;;;;;5034525;28;20029;-76
2023/11/19 06:34:20;;;;;;;13.60;8.75;;;10.10;68.10;;;;;;5033972;28;20029;-75
2023/11/19 06:36:45;;;;;;;15.32;7.53;;;10.20;68.10;;;;;;5034057;28;20488;-76
2023/11/19 06:39:11;;;;;;;11.52;7.03;;;10.30;68.10;;;;;;5034000;28;20034;-75
2023/11/19 06:41:39;;;;;;;11.38;6.97;;;10.40;68.10;;;;;;5033750;28;20139;-77
2023/11/19 06:44:05;;;;;;;11.77;6.70;;;10.50;67.70;;;;;;5034165;28;20381;-76
2023/11/19 06:46:31;;;;;;;10.60;7.00;;;10.70;67.90;;;;;;5034068;28;20037;-75
2023/11/19 06:48:57;;;;;;;13.18;7.32;;;10.70;67.30;;;;;;5034154;28;20045;-74
2023/11/19 06:51:24;;;;;;;12.45;6.72;;;10.80;67.30;;;;;;5034058;28;20057;-74
2023/11/19 06:53:50;;;;;;;12.20;6.95;;;10.80;67.30;;;;;;5033473;28;20092;-76
2023/11/19 06:56:23;;;;;;;14.48;7.20;;;10.90;67.30;;;;;;5033745;28;20029;-76
2023/11/19 06:58:49;;;;;;;12.15;7.05;;;11.10;67.00;;;;;;5034125;28;20048;-76
2023/11/19 07:01:16;;;;;;;12.27;6.40;;;11.50;66.10;;;;;;5034139;28;20120;-75
2023/11/19 07:03:42;;;;;;;12.77;7.07;;;11.50;65.50;;;;;;5033823;28;20042;-77
2023/11/19 07:06:08;;;;;;;11.02;6.80;;;11.50;65.70;;;;;;5033537;28;20038;-77
2023/11/19 07:08:34;;;;;;;12.60;6.78;;;11.50;65.40;;;;;;5033513;28;20434;-76
2023/11/19 07:11:00;;;;;;;12.15;7.18;;;12.00;65.40;;;;;;5033733;28;20029;-77
2023/11/19 07:13:27;;;;;;;11.73;6.82;;;13.20;63.70;;;;;;5033546;28;20048;-77
2023/11/19 07:15:54;;;;;;;12.63;6.57;;;14.10;61.00;;;;;;5033272;28;20040;-75
2023/11/19 07:18:21;;;;;;;9.65;6.70;;;14.60;60.00;;;;;;5033563;28;20048;-76
2023/11/19 07:20:48;;;;;;;13.02;7.55;;;14.70;59.50;;;;;;5033449;28;20068;-75
2023/11/19 07:23:16;;;;;;;11.40;7.03;;;14.00;59.50;;;;;;5033505;28;20087;-76
2023/11/19 07:25:46;;;;;;;16.00;6.97;;;13.30;60.40;;;;;;5033578;28;20029;-76
2023/11/19 07:28:12;;;;;;;11.32;7.07;;;12.80;61.40;;;;;;5033428;28;20037;-77
2023/11/19 07:30:38;;;;;;;11.88;6.65;;;12.40;62.40;;;;;;5033311;28;20083;-76
2023/11/19 07:33:04;;;;;;;10.85;6.50;;;12.20;63.20;;;;;;5033035;28;20338;-76
2023/11/19 07:35:31;;;;;;;11.10;6.90;;;11.90;63.50;;;;;;5033347;28;20098;-77
2023/11/19 07:37:57;;;;;;;10.98;6.53;;;11.80;63.70;;;;;;5048517;28;20061;-75
2023/11/19 07:40:23;;;;;;;10.32;5.82;;;11.80;64.10;;;;;;5033238;28;20037;-77
2023/11/19 07:42:50;;;;;;;10.13;6.68;;;11.70;64.10;;;;;;5033141;28;20034;-77
2023/11/19 07:45:16;;;;;;;11.88;6.13;;;11.70;64.00;;;;;;5033290;28;20025;-78
2023/11/19 07:47:44;;;;;;;10.15;6.18;;;11.70;64.10;;;;;;5032387;28;20040;-77
2023/11/19 07:50:10;;;;;;;12.00;6.53;;;11.70;63.90;;;;;;5032837;28;20041;-75
2023/11/19 07:52:37;;;;;;;10.70;6.20;;;11.80;63.90;;;;;;5032722;28;20084;-77
2023/11/19 07:55:03;;;;;;;11.50;6.40;;;11.80;63.80;;;;;;5032970;28;20029;-77
2023/11/19 07:57:30;;;;;;;18.77;6.28;;;11.90;64.30;;;;;;5032695;28;20127;-77
2023/11/19 07:59:57;;;;;;;10.95;6.10;;;11.90;63.70;;;;;;5032552;28;20041;-77
2023/11/19 08:02:23;;;;;;;8.65;5.70;;;11.90;63.70;;;;;;5033486;28;20056;-77
2023/11/19 08:04:51;;;;;;;12.32;5.78;;;11.90;63.80;;;;;;5033719;28;20392;-76
2023/11/19 08:07:18;;;;;;;9.57;5.47;;;12.00;63.90;;;;;;5015634;28;20469;-76
2023/11/19 08:09:44;;;;;;;9.52;5.82;;;12.00;63.60;;;;;;5032883;28;20102;-76
2023/11/19 08:12:10;;;;;;;10.13;6.00;;;12.20;63.50;;;;;;5032285;28;20029;-79
2023/11/19 08:14:36;;;;;;;11.60;6.20;;;12.20;63.40;;;;;;5032158;28;20037;-77
2023/11/19 08:17:03;;;;;;;11.95;6.55;;;12.30;63.30;;;;;;5014903;28;20539;-78
2023/11/19 08:19:28;;;;;;;12.63;6.55;;;12.30;63.30;;;;;;5015099;28;20399;-76
2023/11/19 08:21:54;;;;;;;10.80;6.35;;;12.30;63.50;;;;;;5032581;28;20026;-77
2023/11/19 08:24:20;;;;;;;11.80;6.72;;;12.40;63.10;;;;;;5032996;28;20041;-77
2023/11/19 08:26:46;;;;;;;11.30;5.95;;;12.50;63.00;;;;;;5032891;28;20034;-77
2023/11/19 08:29:11;;;;;;;10.48;6.05;;;12.60;62.90;;;;;;5032442;28;20349;-77
2023/11/19 08:31:37;;;;;;;10.90;5.70;;;12.70;62.60;;;;;;5032510;28;20033;-77
2023/11/19 08:34:03;;;;;;;9.88;5.90;;;12.70;62.70;;;;;;5032272;28;20349;-77
2023/11/19 08:36:28;;;;;;;10.32;6.05;;;12.80;62.80;;;;;;5032441;28;20057;-77
2023/11/19 08:38:54;;;;;;;9.88;6.10;;;12.80;62.40;;;;;;5014820;28;20436;-77
2023/11/19 08:41:21;;;;;;;11.85;6.15;;;12.90;62.60;;;;;;5032554;28;20060;-80
2023/11/19 08:43:47;;;;;;;10.15;6.50;;;13.00;62.20;;;;;;5032884;28;20112;-81
2023/11/19 08:46:13;;;;;;;9.80;6.55;;;13.10;62.10;;;;;;5034647;28;20060;-88
2023/11/19 08:48:39;;;;;;;11.07;6.20;;;13.10;62.60;;;;;;5033537;28;20041;-84
2023/11/19 08:51:05;;;;;;;11.25;6.00;;;13.00;62.00;;;;;;5034500;28;20037;-82
2023/11/19 08:53:31;;;;;;;11.18;6.35;;;13.00;62.20;;;;;;5033174;28;20069;-84
2023/11/19 08:55:56;;;;;;;12.88;7.18;;;13.00;62.20;;;;;;5034187;28;20045;-92
2023/11/19 08:58:22;;;;;;;12.00;7.78;;;13.00;62.20;;;;;;5041410;28;20026;-93
2023/11/19 09:00:48;;;;;;;12.18;6.65;;;13.10;62.50;;;;;;5045082;28;20029;-88
2023/11/19 09:03:14;;;;;;;15.07;8.02;;;13.10;62.50;;;;;;5040646;28;20113;-84
2023/11/19 09:05:40;;;;;;;12.02;6.97;;;13.10;62.50;;;;;;5038445;28;20030;-87
2023/11/19 09:08:06;;;;;;;9.30;6.18;;;13.10;63.00;;;;;;5040502;28;20038;-86
2023/11/19 09:10:32;;;;;;;12.48;7.57;;;13.20;62.40;;;;;;5037897;28;20047;-85
2023/11/19 09:12:58;;;;;;;10.38;6.88;;;13.30;62.60;;;;;;5039472;28;20093;-85
2023/11/19 09:15:24;;;;;;;11.65;6.90;;;13.30;62.30;;;;;;5038740;28;20041;-87
2023/11/19 09:17:49;;;;;;;12.23;6.45;;;13.40;62.40;;;;;;5038137;28;20090;-89
2023/11/19 09:20:15;;;;;;;10.55;6.18;;;13.50;62.20;;;;;;5038437;28;20109;-85
2023/11/19 09:22:42;;;;;;;9.38;6.38;;;13.70;62.40;;;;;;5035980;28;20046;-84
2023/11/19 09:25:08;;;;;;;11.43;6.18;;;13.80;62.20;;;;;;5035501;28;20035;-81
2023/11/19 09:27:33;;;;;;;10.20;5.75;;;14.00;62.10;;;;;;5035710;28;20148;-84
2023/11/19 09:29:59;;;;;;;10.30;6.00;;;14.10;62.10;;;;;;5036299;28;20081;-82
2023/11/19 09:32:25;;;;;;;10.30;6.22;;;14.20;61.80;;;;;;5022930;28;20037;-87
2023/11/19 09:34:51;;;;;;;12.50;6.22;;;14.30;62.00;;;;;;5038622;28;20037;-84
2023/11/19 09:37:16;;;;;;;11.15;6.45;;;14.40;61.80;;;;;;5036471;28;20511;-81
2023/11/19 09:39:45;;;;;;;11.82;5.65;;;14.50;61.80;;;;;;5018812;28;20048;-90
2023/11/19 09:42:12;;;;;;;8.95;5.80;;;14.70;61.90;;;;;;5018687;28;20397;-88
2023/11/19 09:44:39;;;;;;;13.20;5.80;;;14.80;61.50;;;;;;5016782;28;20378;-87
2023/11/19 09:47:06;;;;;;;9.40;5.85;;;14.80;61.30;;;;;;5016857;28;20026;-85
2023/11/19 09:49:35;;;;;;;11.98;6.05;;;14.90;61.40;;;;;;5017069;28;20127;-87
2023/11/19 09:52:02;;;;;;;12.60;8.00;;;14.90;61.40;;;;;;5016764;28;20113;-86
2023/11/19 09:54:28;;;;;;;11.85;7.90;;;14.90;61.80;;;;;;5016017;28;20034;-86
2023/11/19 09:57:02;;;;;;;11.27;6.63;;;15.00;61.50;;;;;;5016322;28;20501;-87
2023/11/19 09:59:28;;;;;;;;;;;15.10;61.60;;;;;;5017091;28;20046;-87
2023/11/19 10:01:56;;;;;;;9.48;5.85;;;15.10;61.80;;;;;;5018474;28;19912;-86
2023/11/19 10:04:23;;;;;;;16.10;6.38;;;15.20;61.70;;;;;;5031512;28;20088;-88
2023/11/19 10:06:51;;;;;;;11.27;5.85;;;15.20;61.90;;;;;;5019684;28;20516;-88
2023/11/19 10:09:17;;;;;;;12.40;6.47;;;15.30;61.90;;;;;;5016094;28;20129;-87
2023/11/19 10:11:43;;;;;;;10.02;5.78;;;15.40;62.10;;;;;;5021898;28;20030;-86
2023/11/19 10:14:09;;;;;;;12.13;6.70;;;15.60;62.00;;;;;;5027939;28;20048;-88
2023/11/19 10:16:35;;;;;;;13.98;6.75;;;15.80;61.50;;;;;;5032423;28;20029;-88
2023/11/19 10:19:00;;;;;;;13.43;6.43;;;15.90;61.50;;;;;;5025999;28;20068;-89
2023/11/19 10:21:27;;;;;;;14.23;6.40;;;16.10;61.40;;;;;;5017422;28;20091;-89
2023/11/19 10:23:59;;;;;;;8.70;5.43;;;16.20;61.20;;;;;;4999156;28;20038;-89
2023/11/19 10:26:26;;;;;;;10.98;5.95;;;16.30;61.00;;;;;;5016603;28;20030;-87
2023/11/19 10:28:52;;;;;;;10.43;5.80;;;16.40;60.90;;;;;;5015958;28;20053;-87
2023/11/19 10:31:24;;;;;;;8.90;5.43;;;16.50;60.90;;;;;;5016113;28;20501;-87
2023/11/19 10:33:51;;;;;;;10.77;6.03;;;16.60;60.80;;;;;;4997999;28;20466;-84
2023/11/19 10:36:17;;;;;;;11.18;6.00;;;16.60;60.70;;;;;;4998117;28;20409;-82
2023/11/19 10:38:53;;;;;;;9.05;5.60;;;16.60;60.50;;;;;;5015448;28;20037;-81
2023/11/19 10:41:32;;;;;;;10.93;5.53;;;16.70;60.50;;;;;;5016017;28;20045;-82
2023/11/19 10:44:01;;;;;;;8.57;5.43;;;16.70;60.60;;;;;;5015471;28;20053;-87
2023/11/19 10:46:40;;;;;;;8.65;5.47;;;16.70;60.80;;;;;;5016630;28;20350;-86
2023/11/19 10:49:10;;;;;;;9.60;5.60;;;16.70;61.00;;;;;;5017118;28;20061;-85
2023/11/19 10:51:36;;;;;;;11.35;5.80;;;16.70;61.10;;;;;;5016069;28;20110;-84
2023/11/19 10:54:05;;;;;;;9.55;6.18;;;16.80;60.90;;;;;;5015561;28;20124;-86
2023/11/19 10:56:33;;;;;;;11.70;6.28;;;16.80;60.80;;;;;;5014497;28;20113;-86
2023/11/19 10:59:00;;;;;;;12.25;7.05;;;16.80;60.80;;;;;;5014644;28;20382;-86
2023/11/19 11:01:43;;;;;;;10.40;5.60;;;16.90;60.80;;;;;;5014707;28;20072;-86
2023/11/19 11:04:15;;;;;;;8.70;5.65;;;16.90;60.50;;;;;;5014918;28;20033;-87
2023/11/19 11:06:41;;;;;;;12.43;5.57;;;16.90;60.60;;;;;;5015746;28;20045;-85
2023/11/19 11:09:11;;;;;;;9.88;5.82;;;16.90;60.60;;;;;;4997958;28;20407;-87
2023/11/19 11:11:40;;;;;;;12.95;6.50;;;16.90;60.90;;;;;;5014227;28;20038;-85
2023/11/19 11:14:07;;;;;;;12.85;5.47;;;16.90;60.80;;;;;;5014616;28;20063;-87
2023/11/19 11:16:34;;;;;;;11.75;6.28;;;17.00;60.90;;;;;;5014861;28;20447;-87
2023/11/19 11:19:00;;;;;;;11.57;6.07;;;17.00;60.90;;;;;;5014830;28;20037;-87
2023/11/19 11:21:27;;;;;;;11.40;6.88;;;17.00;60.90;;;;;;5014754;28;20401;-89
2023/11/19 11:24:05;;;;;;;15.55;6.28;;;17.10;61.00;;;;;;5016442;28;20041;-89
2023/11/19 11:26:48;;;;;;;11.30;6.38;;;17.10;61.20;;;;;;4995829;28;20033;-87
2023/11/19 11:29:53;;;;;;;11.35;6.70;;;17.10;61.10;;;;;;5007951;28;20105;-86
2023/11/19 11:32:30;;;;;;;10.95;6.38;;;17.20;61.10;;;;;;4996790;28;20037;-87
2023/11/19 11:35:09;;;;;;;12.20;6.10;;;17.20;61.20;;;;;;5017438;28;20034;-85
2023/11/19 11:37:50;;;;;;;12.32;6.60;;;17.20;61.40;;;;;;5014672;28;20062;-85
2023/11/19 11:40:18;;;;;;;16.73;7.72;;;17.30;61.30;;;;;;5017823;28;20030;-82
2023/11/19 11:42:47;;;;;;;12.70;6.85;;;17.40;61.40;;;;;;5033845;28;20049;-84
2023/11/19 11:45:14;;;;;;;14.02;6.88;;;17.50;61.40;;;;;;5034412;28;20039;-85
2023/11/19 11:47:43;;;;;;;12.07;6.05;;;17.60;61.50;;;;;;5041791;28;20029;-84
2023/11/19 11:50:19;;;;;;;13.02;5.88;;;17.60;61.50;;;;;;5025188;28;20135;-81
2023/11/19 11:52:59;;;;;;;10.40;5.50;;;17.70;61.70;;;;;;5043973;28;20464;-82
2023/11/19 11:55:54;;;;;;;9.50;6.32;;;17.80;62.40;;;;;;5036299;28;20088;-83
2023/11/19 11:58:22;;;;;;;9.95;6.65;;;17.80;61.70;;;;;;5036215;28;20469;-84
2023/11/19 12:00:48;;;;;;;12.30;6.25;;;17.90;61.90;;;;;;5033820;28;20084;-86
2023/11/19 12:03:14;;;;;;;9.98;6.47;;;17.90;61.90;;;;;;5036452;28;20088;-85
2023/11/19 12:05:47;;;;;;;11.80;6.43;;;18.00;61.90;;;;;;5032422;28;20038;-84
2023/11/19 12:08:15;;;;;;;9.50;6.00;;;18.10;62.10;;;;;;5026968;28;20026;-80
2023/11/19 12:10:51;;;;;;;16.25;6.00;;;18.10;62.10;;;;;;5017898;28;20049;-87
2023/11/19 12:13:19;;;;;;;9.20;4.80;;;18.10;62.50;;;;;;5013675;28;20616;-80
2023/11/19 12:15:57;;;;;;;11.25;4.95;;;18.20;62.80;;;;;;5012935;28;20034;-78
2023/11/19 12:18:30;;;;;;;13.70;4.70;;;18.20;63.10;;;;;;5012652;28;20041;-79
2023/11/19 12:20:57;;;;;;;11.60;5.57;;;18.20;63.40;;;;;;5012788;28;20034;-78
2023/11/19 12:23:23;;;;;;;14.00;4.65;;;18.30;63.80;;;;;;5015668;28;20025;-76
2023/11/19 12:25:49;;;;;;;9.38;4.13;;;18.30;64.00;;;;;;5012869;28;20049;-80
2023/11/19 12:28:17;;;;;;;10.80;4.05;;;18.30;64.00;;;;;;5012619;28;20399;-76
2023/11/19 12:30:48;;;;;;;14.20;4.28;;;18.40;64.20;;;;;;5013431;28;20092;-82
2023/11/19 12:33:14;;;;;;;13.75;4.20;;;18.40;64.30;;;;;;5021351;28;20507;-79
2023/11/19 12:35:45;;;;;;;8.00;3.60;;;18.50;64.50;;;;;;5003697;28;20045;-76
2023/11/19 12:38:25;;;;;;;9.88;3.90;;;18.50;64.70;;;;;;5025065;28;20030;-81